Time;durP1;ratioP1;P1;durP2;ratioP2;P2;SDS_P1;SDS_P2;PMS_P1;PMS_P2;Temp;Humidity;BMP_temperature;BMP_pressure;BME280_temperature;BME280_humidity;BME280_pressure;Samples;Min_cycle;Max_cycle;Signal;HPM_P1;HPM_P2
2022/05/13 00:00:15;;;;;;;8.88;5.95;;;16.20;99.90;;;15.96;100.00;97513.22;5011725;28;20321;-45
2022/05/13 00:02:43;;;;;;;6.50;5.65;;;16.20;99.90;;;15.95;100.00;97518.63;5011477;28;20156;-49
2022/05/13 00:05:09;;;;;;;7.85;6.20;;;16.20;99.90;;;15.93;100.00;97509.88;5011909;28;20563;-47
2022/05/13 00:07:35;;;;;;;6.40;5.68;;;16.20;99.90;;;15.92;100.00;97511.69;5012822;28;20044;-46
2022/05/13 00:10:05;;;;;;;7.80;5.60;;;16.10;99.90;;;15.91;100.00;97511.78;4996134;28;20401;-46
2022/05/13 00:12:35;;;;;;;7.38;6.25;;;16.10;99.90;;;15.87;100.00;97505.75;5012575;28;20381;-44
2022/05/13 00:15:04;;;;;;;6.65;5.88;;;16.10;99.90;;;15.84;100.00;97514.78;5011504;28;20037;-45
2022/05/13 00:17:30;;;;;;;7.22;6.18;;;16.10;99.90;;;15.83;100.00;97515.72;5004048;28;20426;-48
2022/05/13 00:19:56;;;;;;;8.02;6.22;;;16.10;99.90;;;15.83;100.00;97513.06;5012679;28;20116;-44
2022/05/13 00:22:22;;;;;;;8.45;6.43;;;16.10;99.90;;;15.84;100.00;97509.47;5013051;28;20065;-45
2022/05/13 00:24:49;;;;;;;7.45;6.10;;;16.10;99.90;;;15.84;100.00;97503.28;5006374;28;20037;-48
2022/05/13 00:27:14;;;;;;;8.50;6.65;;;16.10;99.90;;;15.85;100.00;97515.63;5009826;28;20044;-48
2022/05/13 00:29:40;;;;;;;9.45;6.82;;;16.10;99.90;;;15.87;100.00;97519.06;5011318;28;20489;-47
2022/05/13 00:32:06;;;;;;;8.23;6.20;;;16.10;99.90;;;15.87;100.00;97521.72;5010868;28;20132;-45
2022/05/13 00:34:33;;;;;;;6.55;5.88;;;16.10;99.90;;;15.88;100.00;97517.25;5002501;28;20037;-48
2022/05/13 00:36:59;;;;;;;7.45;6.22;;;16.10;99.90;;;15.90;100.00;97505.59;5010752;28;20029;-46
2022/05/13 00:39:25;;;;;;;7.78;6.35;;;16.10;99.90;;;15.91;100.00;97504.63;5014097;28;20065;-46
2022/05/13 00:41:53;;;;;;;8.55;6.07;;;16.10;99.90;;;15.93;100.00;97509.88;5006569;28;20493;-45
2022/05/13 00:44:19;;;;;;;7.53;6.07;;;16.20;99.90;;;15.92;100.00;97506.38;5008767;28;20453;-47
2022/05/13 00:46:44;;;;;;;7.15;5.38;;;16.20;99.90;;;15.93;100.00;97505.41;4988681;28;20040;-47
2022/05/13 00:49:13;;;;;;;6.43;5.70;;;16.20;99.90;;;15.94;100.00;97507.13;5012545;28;20037;-47
2022/05/13 00:51:45;;;;;;;7.50;6.38;;;16.20;99.90;;;15.95;100.00;97503.53;5012479;28;20401;-48
2022/05/13 00:54:14;;;;;;;7.13;5.97;;;16.20;99.90;;;15.96;100.00;97509.72;5007902;28;20180;-47
2022/05/13 00:56:43;;;;;;;9.27;6.40;;;16.20;99.90;;;15.94;100.00;97501.81;4993049;28;20340;-45
2022/05/13 00:59:15;;;;;;;6.72;5.82;;;16.20;99.90;;;15.95;100.00;97494.69;5011655;28;20482;-48
2022/05/13 01:01:41;;;;;;;10.10;6.20;;;16.20;99.90;;;15.95;100.00;97506.19;4987272;28;20697;-46
2022/05/13 01:04:11;;;;;;;7.28;5.78;;;16.20;99.90;;;15.91;100.00;97495.81;5012167;28;20128;-48
2022/05/13 01:06:41;;;;;;;7.68;5.88;;;16.20;99.90;;;15.95;100.00;97498.22;4986114;28;20477;-48
2022/05/13 01:09:07;;;;;;;6.70;5.57;;;16.20;99.90;;;15.95;100.00;97495.56;5011579;28;20543;-48
2022/05/13 01:11:37;;;;;;;6.53;5.60;;;16.20;99.90;;;15.88;100.00;97482.69;5011811;28;20036;-47
2022/05/13 01:14:07;;;;;;;6.95;6.25;;;16.20;99.90;;;15.93;100.00;97489.44;4990719;28;20029;-46
2022/05/13 01:18:05;;;;;;;10.93;7.28;;;16.20;99.90;;;15.92;100.00;97497.53;5009138;28;20092;-47
2022/05/13 01:19:19;;;;;;;8.10;6.55;;;16.20;99.90;;;15.91;100.00;97487.84;5009977;28;20045;-48
2022/05/13 01:21:48;;;;;;;8.70;6.38;;;16.20;99.90;;;15.90;100.00;97484.31;5011310;28;20406;-48
2022/05/13 01:24:19;;;;;;;8.70;7.10;;;16.10;99.90;;;15.85;100.00;97470.44;5008919;28;20044;-50
2022/05/13 01:26:45;;;;;;;6.90;6.15;;;16.10;99.90;;;15.86;100.00;97465.97;5005092;28;20177;-47
2022/05/13 01:29:10;;;;;;;7.15;6.15;;;16.10;99.90;;;15.78;100.00;97459.28;5006640;28;20036;-50
2022/05/13 01:31:40;;;;;;;7.15;6.35;;;16.10;99.90;;;15.80;100.00;97468.03;5013077;28;20060;-51
2022/05/13 01:34:10;;;;;;;9.63;7.05;;;16.00;99.90;;;15.78;100.00;97466.41;5014190;28;20029;-48
2022/05/13 01:36:37;;;;;;;11.73;8.02;;;16.00;99.90;;;15.68;100.00;97468.69;5015955;28;20037;-49
2022/05/13 01:39:04;;;;;;;9.02;7.93;;;16.00;99.90;;;15.68;100.00;97489.09;5014905;28;20029;-47
2022/05/13 01:41:29;;;;;;;8.48;6.78;;;15.90;99.90;;;15.63;100.00;97478.72;5009936;28;20511;-49
2022/05/13 01:43:57;;;;;;;7.07;6.03;;;15.90;99.90;;;15.60;100.00;97477.09;5004997;28;20037;-48
2022/05/13 01:46:23;;;;;;;14.23;7.93;;;15.80;99.90;;;15.56;100.00;97472.91;4996092;28;20119;-45
2022/05/13 01:48:50;;;;;;;8.63;7.18;;;15.80;99.90;;;15.50;100.00;97481.19;5015412;28;20112;-47
2022/05/13 01:51:17;;;;;;;10.18;6.28;;;15.80;99.90;;;15.39;100.00;97483.59;5012447;28;20033;-46
2022/05/13 01:53:43;;;;;;;8.48;6.25;;;15.70;99.90;;;15.36;100.00;97483.75;5014809;28;20033;-47
2022/05/13 01:56:10;;;;;;;9.27;6.13;;;15.60;99.90;;;15.36;100.00;97494.38;5007379;28;20064;-51
2022/05/13 01:58:36;;;;;;;8.90;6.32;;;15.60;99.90;;;15.34;100.00;97504.25;5009082;28;20059;-50
2022/05/13 02:01:06;;;;;;;8.63;6.22;;;15.60;99.90;;;15.32;100.00;97503.47;5015174;28;20461;-47
2022/05/13 02:03:44;;;;;;;7.22;5.47;;;15.50;99.90;;;15.29;100.00;97493.88;5008751;28;20084;-49
2022/05/13 02:06:20;;;;;;;11.02;5.93;;;15.60;99.90;;;15.27;100.00;97501.06;5012178;28;20052;-49
2022/05/13 02:08:46;;;;;;;8.32;5.72;;;15.50;99.90;;;15.22;100.00;97485.38;5009072;28;20543;-47
2022/05/13 02:11:13;;;;;;;11.40;6.13;;;15.50;99.90;;;15.20;100.00;97483.72;5006310;28;20045;-49
2022/05/13 02:13:39;;;;;;;6.78;4.82;;;15.50;99.90;;;15.18;100.00;97498.91;5006627;28;20461;-49
2022/05/13 02:16:05;;;;;;;6.68;5.57;;;15.40;99.90;;;15.15;100.00;97521.19;5009988;28;20026;-49
2022/05/13 02:18:31;;;;;;;9.60;6.30;;;15.40;99.90;;;15.13;100.00;97530.16;5011322;28;20064;-49
2022/05/13 02:20:57;;;;;;;8.07;5.68;;;15.40;99.90;;;15.12;100.00;97528.47;5016882;28;20102;-46
2022/05/13 02:23:23;;;;;;;13.30;6.63;;;15.40;99.90;;;15.11;100.00;97526.75;5008737;28;20034;-46
2022/05/13 02:25:51;;;;;;;9.15;6.57;;;15.40;99.90;;;15.08;100.00;97507.38;5010866;28;20178;-47
2022/05/13 02:28:17;;;;;;;14.32;6.05;;;15.40;99.90;;;15.09;100.00;97497.59;5009675;28;20030;-45
2022/05/13 02:30:43;;;;;;;7.55;5.57;;;15.30;99.90;;;14.99;100.00;97486.63;5005054;28;20033;-46
2022/05/13 02:33:09;;;;;;;9.48;5.85;;;15.30;99.90;;;14.82;100.00;97478.69;5000256;28;20033;-47
2022/05/13 02:35:35;;;;;;;8.98;5.68;;;15.20;99.90;;;14.83;100.00;97497.19;5005651;28;20041;-46
2022/05/13 02:38:00;;;;;;;7.75;4.88;;;15.20;99.90;;;14.81;100.00;97500.88;5012172;28;20140;-45
2022/05/13 02:41:11;;;;;;;10.23;5.40;;;15.10;99.90;;;14.78;100.00;97487.75;5012809;28;20045;-45
2022/05/13 02:43:12;;;;;;;8.85;4.90;;;15.10;99.90;;;14.74;100.00;97492.38;4997491;28;20044;-45
2022/05/13 02:45:39;;;;;;;6.72;4.47;;;15.00;99.90;;;14.71;100.00;97495.19;5004528;28;20038;-45
2022/05/13 02:48:06;;;;;;;6.47;4.45;;;15.00;99.90;;;14.69;100.00;97497.91;5002682;28;20099;-49
2022/05/13 02:50:32;;;;;;;7.95;4.82;;;15.00;99.90;;;14.67;100.00;97497.13;5006984;28;20045;-46
2022/05/13 02:52:59;;;;;;;5.40;4.30;;;15.00;99.90;;;14.66;100.00;97492.78;5002918;28;20370;-46
2022/05/13 02:55:26;;;;;;;4.97;4.10;;;14.90;99.90;;;14.65;100.00;97487.53;5013428;28;20037;-48
2022/05/13 02:57:52;;;;;;;6.03;4.40;;;14.90;99.90;;;14.61;100.00;97481.53;5005116;28;20044;-46
2022/05/13 03:00:18;;;;;;;6.82;4.75;;;14.90;99.90;;;14.63;100.00;97492.06;5012242;28;20333;-45
2022/05/13 03:02:43;;;;;;;6.78;4.93;;;14.90;99.90;;;14.62;100.00;97488.53;5016455;28;20134;-46
2022/05/13 03:05:09;;;;;;;5.75;4.63;;;14.90;99.90;;;14.64;100.00;97497.31;5013266;28;20098;-47
2022/05/13 03:07:35;;;;;;;5.97;4.40;;;14.90;99.90;;;14.64;100.00;97488.47;5007730;28;20061;-46
2022/05/13 03:10:01;;;;;;;6.82;4.95;;;14.90;99.90;;;14.66;100.00;97494.56;5012681;28;20040;-48
2022/05/13 03:12:26;;;;;;;5.40;4.68;;;14.90;99.90;;;14.68;100.00;97487.41;5010052;28;20060;-45
2022/05/13 03:14:52;;;;;;;8.80;4.95;;;14.90;99.90;;;14.69;100.00;97489.94;5013630;28;20488;-46
2022/05/13 03:17:18;;;;;;;6.13;5.00;;;15.00;99.90;;;14.70;100.00;97486.38;5015684;28;20063;-45
2022/05/13 03:19:43;;;;;;;8.02;5.43;;;15.00;99.90;;;14.68;100.00;97482.09;5008824;28;20038;-46
2022/05/13 03:22:09;;;;;;;5.82;4.57;;;15.00;99.90;;;14.73;100.00;97487.97;5012833;28;20412;-45
2022/05/13 03:24:35;;;;;;;6.05;5.25;;;15.00;99.90;;;14.75;100.00;97495.88;5015816;28;20457;-45
2022/05/13 03:27:01;;;;;;;9.13;5.22;;;15.00;99.90;;;14.75;100.00;97487.91;5014136;28;20160;-47
2022/05/13 03:29:27;;;;;;;5.50;4.78;;;15.00;99.90;;;14.76;100.00;97485.19;5011660;28;20535;-45
2022/05/13 03:31:54;;;;;;;6.18;4.95;;;15.10;99.90;;;14.77;100.00;97486.03;5012398;28;20049;-45
2022/05/13 03:34:21;;;;;;;6.35;4.93;;;15.10;99.90;;;14.77;100.00;97480.72;5020820;28;20033;-50
2022/05/13 03:36:49;;;;;;;5.82;5.10;;;15.00;99.90;;;14.77;100.00;97480.72;5014753;28;20129;-48
2022/05/13 03:39:15;;;;;;;5.68;4.50;;;15.00;99.90;;;14.76;100.00;97476.38;5019979;28;20071;-50
2022/05/13 03:41:41;;;;;;;8.80;5.28;;;15.00;99.90;;;14.74;100.00;97486.22;4996180;28;20041;-49
2022/05/13 03:44:08;;;;;;;7.68;5.63;;;15.00;99.90;;;14.72;100.00;97488.94;5014602;28;20679;-49
2022/05/13 03:46:35;;;;;;;8.43;5.20;;;15.00;99.90;;;14.72;100.00;97483.63;5019058;28;20053;-49
2022/05/13 03:49:01;;;;;;;8.93;5.00;;;15.00;99.90;;;14.70;100.00;97491.66;5016647;28;20152;-46
2022/05/13 03:51:28;;;;;;;6.65;5.57;;;15.00;99.90;;;14.67;100.00;97485.66;5019003;28;20120;-47
2022/05/13 03:53:53;;;;;;;6.78;5.75;;;15.00;99.90;;;14.69;100.00;97489.09;5018034;28;20340;-50
2022/05/13 03:56:19;;;;;;;6.68;5.25;;;14.90;99.90;;;14.70;100.00;97493.47;4995998;28;20505;-46
2022/05/13 03:58:45;;;;;;;7.32;5.25;;;15.00;99.90;;;14.69;100.00;97494.41;5006805;28;20071;-50
2022/05/13 04:01:10;;;;;;;8.02;5.25;;;15.00;99.90;;;14.69;100.00;97489.94;5014140;28;20449;-50
2022/05/13 04:03:36;;;;;;;7.38;4.97;;;14.90;99.90;;;14.69;100.00;97494.41;5014768;28;20068;-46
2022/05/13 04:08:59;;;;;;;7.57;5.05;;;14.90;99.90;;;14.66;100.00;97492.78;4997767;28;20068;-47
2022/05/13 04:11:37;;;;;;;7.72;5.20;;;15.00;99.90;;;14.64;100.00;97483.16;5010502;28;20025;-46
2022/05/13 04:16:50;;;;;;;5.72;5.13;;;14.90;99.90;;;14.66;100.00;97491.91;5014188;28;20094;-45
2022/05/13 04:19:17;;;;;;;5.43;4.90;;;14.90;99.90;;;14.67;100.00;97486.50;5008127;28;20932;-50
2022/05/13 04:21:44;;;;;;;7.25;5.32;;;14.90;99.90;;;14.69;100.00;97474.00;5014763;28;20345;-47
2022/05/13 04:24:17;;;;;;;7.68;5.47;;;14.90;99.90;;;14.67;100.00;97475.91;5015840;28;20033;-46
2022/05/13 04:26:43;;;;;;;6.15;5.50;;;15.00;99.90;;;14.70;100.00;97483.72;5010542;28;20021;-45
2022/05/13 04:29:09;;;;;;;7.80;5.75;;;15.00;99.90;;;14.69;100.00;97483.78;5010883;28;20458;-49
2022/05/13 04:31:40;;;;;;;6.95;5.05;;;15.00;99.90;;;14.72;100.00;97488.09;5009428;28;20124;-46
2022/05/13 04:34:08;;;;;;;8.13;5.00;;;15.00;99.90;;;14.73;100.00;97506.56;5013074;28;20046;-47
2022/05/13 04:36:34;;;;;;;5.85;5.05;;;15.00;99.90;;;14.72;100.00;97504.03;4992000;28;20049;-49
2022/05/13 04:39:00;;;;;;;7.88;5.32;;;15.00;99.90;;;14.83;100.00;97504.31;5015055;28;20552;-49
2022/05/13 04:44:14;;;;;;;6.10;5.43;;;15.10;99.90;;;14.95;100.00;97508.09;5009341;28;20044;-46
2022/05/13 04:46:40;;;;;;;5.50;4.80;;;15.20;99.90;;;15.00;100.00;97511.38;5012541;28;20367;-48
2022/05/13 04:49:06;;;;;;;7.47;5.78;;;15.30;99.90;;;15.01;100.00;97513.09;5017063;28;20056;-48
2022/05/13 04:51:33;;;;;;;7.55;5.30;;;15.30;99.90;;;15.07;100.00;97518.94;5017778;28;20026;-47
2022/05/13 04:53:59;;;;;;;5.63;5.13;;;15.40;99.90;;;15.08;100.00;97522.47;5012021;28;20041;-44
2022/05/13 04:56:28;;;;;;;7.60;5.35;;;15.40;99.90;;;15.12;100.00;97526.66;5014976;22;20538;-35
2022/05/13 04:58:54;;;;;;;5.72;4.72;;;15.40;99.90;;;15.12;100.00;97528.47;4992062;28;20037;-35
2022/05/13 05:01:21;;;;;;;7.15;5.53;;;15.40;99.90;;;15.12;100.00;97529.31;5001144;28;20029;-36
2022/05/13 05:03:48;;;;;;;6.70;5.50;;;15.40;99.90;;;15.12;100.00;97533.78;4999227;28;20414;-35
2022/05/13 05:06:16;;;;;;;7.60;5.40;;;15.40;99.90;;;15.05;100.00;97525.28;4993698;28;20561;-36
2022/05/13 05:08:42;;;;;;;7.18;5.38;;;15.40;99.90;;;15.09;100.00;97534.78;4979618;28;20068;-36
2022/05/13 05:11:11;;;;;;;6.88;5.40;;;15.40;99.90;;;15.05;100.00;97530.59;4973492;28;20030;-35
2022/05/13 05:13:49;;;;;;;6.80;5.20;;;15.40;99.90;;;15.11;100.00;97529.38;4976212;28;20062;-35
2022/05/13 05:16:16;;;;;;;5.90;5.25;;;15.40;99.90;;;15.14;100.00;97545.19;4969079;28;20176;-36
2022/05/13 05:18:43;;;;;;;6.70;4.95;;;15.40;99.90;;;15.18;100.00;97544.94;4998349;28;20185;-36
2022/05/13 05:21:10;;;;;;;6.22;5.40;;;15.40;99.90;;;15.20;100.00;97540.41;4978450;28;20485;-36
2022/05/13 05:23:40;;;;;;;5.18;4.63;;;15.50;99.90;;;15.24;100.00;97538.44;4986053;28;20034;-36
2022/05/13 05:26:06;;;;;;;5.60;4.50;;;15.50;99.90;;;15.32;100.00;97540.69;4983025;28;20061;-36
2022/05/13 05:28:32;;;;;;;6.38;4.85;;;15.60;99.90;;;15.39;100.00;97536.75;4982804;28;20045;-36
2022/05/13 05:31:00;;;;;;;5.53;4.65;;;15.70;99.90;;;15.48;100.00;97536.25;4983026;28;20409;-38
2022/05/13 05:33:26;;;;;;;5.57;4.18;;;15.80;99.90;;;15.55;100.00;97544.75;4993090;28;20102;-37
2022/05/13 05:35:52;;;;;;;4.90;4.00;;;15.90;99.90;;;15.65;100.00;97540.66;4983671;28;20045;-36
2022/05/13 05:38:18;;;;;;;5.43;4.35;;;16.00;99.90;;;15.84;100.00;97543.16;4986288;28;20025;-36
2022/05/13 05:40:44;;;;;;;4.88;4.22;;;16.10;99.90;;;15.98;100.00;97542.38;4971458;28;20450;-36
2022/05/13 05:43:16;;;;;;;10.45;5.53;;;16.30;99.90;;;16.02;100.00;97547.47;4988419;28;20422;-37
2022/05/13 05:45:42;;;;;;;7.55;5.18;;;16.30;99.90;;;16.07;100.00;97549.00;4983847;28;20117;-36
2022/05/13 05:48:10;;;;;;;7.47;4.90;;;16.30;99.90;;;16.02;100.00;97549.25;4991273;28;20025;-36
2022/05/13 05:50:36;;;;;;;5.18;4.15;;;16.30;99.90;;;16.01;100.00;97553.72;4987234;28;20072;-36
2022/05/13 05:53:03;;;;;;;9.82;5.07;;;16.30;99.90;;;15.94;100.00;97551.50;4985850;28;20409;-37
2022/05/13 05:58:16;;;;;;;6.53;4.57;;;16.20;99.90;;;15.95;100.00;97550.53;4982792;28;20129;-36
2022/05/13 06:00:46;;;;;;;5.22;3.97;;;16.20;99.90;;;15.98;100.00;97550.38;4987815;28;20050;-36
2022/05/13 06:03:12;;;;;;;4.82;3.92;;;16.30;99.90;;;16.02;100.00;97562.53;4982606;28;21537;-37
2022/05/13 06:05:38;;;;;;;7.72;3.97;;;16.30;99.90;;;15.98;100.00;97561.00;4976498;28;20034;-37
2022/05/13 06:08:05;;;;;;;5.75;4.30;;;16.30;99.90;;;15.99;100.00;97570.72;4979059;28;20034;-37
2022/05/13 06:10:35;;;;;;;5.25;4.10;;;16.30;99.90;;;15.95;100.00;97567.38;4982037;28;20434;-36
2022/05/13 06:13:02;;;;;;;5.50;3.60;;;16.20;99.90;;;16.03;100.00;97577.56;4987246;28;20500;-37
2022/05/13 06:15:28;;;;;;;8.10;4.47;;;16.30;99.90;;;16.07;100.00;97576.44;4984707;28;20100;-37
2022/05/13 06:17:56;;;;;;;6.80;3.25;;;16.40;99.90;;;16.14;100.00;97574.31;4988483;28;20494;-37
2022/05/13 06:20:28;;;;;;;6.57;3.40;;;16.40;99.90;;;16.27;100.00;97569.13;4978200;28;20061;-37
2022/05/13 06:22:54;;;;;;;;;;;16.50;99.90;;;16.31;100.00;97579.53;4986130;28;20111;-36
2022/05/13 06:25:21;;;;;;;8.23;3.47;;;16.60;99.90;;;16.33;100.00;97582.97;4977762;28;20382;-37
2022/05/13 06:27:49;;;;;;;9.45;3.15;;;16.60;99.90;;;16.40;100.00;97583.44;4979672;28;20041;-36
2022/05/13 06:30:25;;;;;;;6.93;3.03;;;16.70;99.90;;;16.47;100.00;97575.97;4976713;28;20033;-36
2022/05/13 06:32:51;;;;;;;5.20;3.25;;;16.70;99.90;;;16.54;100.00;97578.19;4977463;28;20035;-36
2022/05/13 06:35:18;;;;;;;5.00;3.03;;;16.80;99.90;;;16.65;100.00;97582.03;4981041;28;20443;-36
2022/05/13 06:37:44;;;;;;;5.53;3.20;;;16.90;99.90;;;16.73;100.00;97563.81;4982403;28;20545;-36
2022/05/13 06:40:10;;;;;;;4.53;2.90;;;17.10;99.90;;;17.03;100.00;97574.47;4979898;28;20137;-36
2022/05/13 06:42:36;;;;;;;6.03;3.30;;;17.30;99.90;;;17.16;100.00;97582.56;4983521;28;20070;-36
2022/05/13 06:45:02;;;;;;;4.53;3.03;;;17.50;99.90;;;17.32;100.00;97582.50;4981086;28;20113;-36
2022/05/13 06:47:28;;;;;;;5.63;3.30;;;17.60;99.90;;;17.38;100.00;97581.25;4977615;28;20030;-36
2022/05/13 06:49:53;;;;;;;8.25;3.28;;;17.70;99.90;;;17.42;100.00;97580.13;4979100;28;20041;-36
2022/05/13 06:52:19;;;;;;;7.30;3.15;;;17.70;99.90;;;17.46;100.00;97579.84;4984017;28;20042;-36
2022/05/13 06:54:45;;;;;;;7.07;3.33;;;17.80;99.90;;;17.49;100.00;97594.78;4981883;28;20034;-36
2022/05/13 06:57:11;;;;;;;6.03;3.30;;;17.80;99.90;;;17.33;100.00;97603.72;4971113;28;20112;-36
2022/05/13 06:59:38;;;;;;;5.82;2.60;;;17.60;99.90;;;17.16;100.00;97601.22;4983857;28;20049;-36
2022/05/13 07:02:04;;;;;;;9.98;3.72;;;17.40;99.90;;;16.97;100.00;97601.47;4980478;28;20576;-36
2022/05/13 07:04:31;;;;;;;5.18;2.75;;;17.30;99.90;;;16.93;100.00;97591.94;4977409;28;20034;-36
2022/05/13 07:06:56;;;;;;;4.35;3.10;;;17.20;99.90;;;16.95;100.00;97593.56;4979121;28;20046;-36
2022/05/13 07:09:22;;;;;;;7.57;3.00;;;17.20;99.90;;;16.91;100.00;97593.84;4983917;28;20034;-36
2022/05/13 07:11:48;;;;;;;4.57;2.60;;;17.20;99.90;;;16.90;100.00;97600.97;4983193;28;20467;-37
2022/05/13 07:14:14;;;;;;;4.25;3.20;;;17.20;99.90;;;16.87;100.00;97605.63;4986419;28;20095;-36
2022/05/13 07:16:39;;;;;;;4.40;2.47;;;17.20;99.90;;;16.89;100.00;97607.25;4977533;28;20053;-36
2022/05/13 07:19:06;;;;;;;4.53;2.80;;;17.20;99.90;;;16.97;100.00;97604.13;4992398;28;20525;-36
2022/05/13 07:21:32;;;;;;;5.18;2.88;;;17.30;99.90;;;17.04;100.00;97618.81;4977319;28;20026;-36
2022/05/13 07:23:58;;;;;;;6.45;2.88;;;17.30;99.90;;;17.06;100.00;97616.91;4989533;28;20084;-36
2022/05/13 07:26:23;;;;;;;5.60;2.97;;;17.30;99.90;;;17.02;100.00;97612.72;4979227;28;20310;-37
2022/05/13 07:28:50;;;;;;;5.70;2.78;;;17.30;99.90;;;17.00;100.00;97617.28;4984620;28;20045;-36
2022/05/13 07:31:15;;;;;;;6.80;3.40;;;17.30;99.90;;;17.05;100.00;97623.19;4980176;28;20033;-36
2022/05/13 07:33:41;;;;;;;9.27;3.25;;;17.30;99.90;;;17.05;100.00;97625.84;4981114;28;20037;-36
2022/05/13 07:36:07;;;;;;;5.25;3.47;;;17.40;99.90;;;17.08;100.00;97625.66;4987578;28;20552;-36
2022/05/13 07:38:34;;;;;;;6.53;2.97;;;17.40;99.90;;;17.10;100.00;97625.56;4989098;28;20573;-36
2022/05/13 07:41:19;;;;;;;6.60;2.88;;;17.40;99.90;;;16.96;100.00;97632.59;4978038;28;20050;-36
2022/05/13 07:43:46;;;;;;;4.43;2.80;;;17.30;99.90;;;17.03;100.00;97633.09;4981725;28;20029;-37
2022/05/13 07:46:13;;;;;;;5.95;3.08;;;17.40;99.90;;;17.04;100.00;97641.94;4989777;28;20034;-36
2022/05/13 07:48:41;;;;;;;3.90;2.40;;;17.40;99.90;;;17.09;100.00;97645.19;4980155;28;20035;-36
2022/05/13 07:51:08;;;;;;;4.68;2.50;;;17.40;99.90;;;17.11;100.00;97651.28;4980878;28;20038;-36
2022/05/13 07:53:34;;;;;;;6.55;2.38;;;17.40;99.90;;;17.05;100.00;97652.50;4979607;28;20033;-36
2022/05/13 07:56:01;;;;;;;7.18;2.65;;;17.40;99.90;;;17.09;100.00;97661.16;4975467;28;20034;-36
2022/05/13 07:58:28;;;;;;;7.40;2.42;;;17.40;99.90;;;17.11;100.00;97659.28;4987393;28;20049;-36
2022/05/13 08:00:54;;;;;;;4.90;2.35;;;17.50;99.90;;;17.21;100.00;97655.13;4982130;28;20337;-36
2022/05/13 08:03:21;;;;;;;6.50;2.63;;;17.60;99.90;;;17.40;100.00;97654.00;4983043;28;20030;-36
2022/05/13 08:05:51;;;;;;;5.88;2.50;;;17.70;99.90;;;17.64;100.00;97647.19;4968305;28;20038;-36
2022/05/13 08:08:23;;;;;;;8.90;2.75;;;18.00;99.90;;;17.73;100.00;97640.41;4988210;28;20035;-36
2022/05/13 08:10:57;;;;;;;7.57;3.17;;;18.20;99.90;;;18.04;100.00;97658.06;4972009;28;20763;-36
2022/05/13 08:13:24;;;;;;;8.45;2.67;;;18.40;99.90;;;18.29;100.00;97664.50;4986256;28;20497;-36
2022/05/13 08:15:50;;;;;;;10.82;2.85;;;18.60;99.90;;;18.51;100.00;97663.97;4987201;28;20053;-36
2022/05/13 08:18:19;;;;;;;6.63;2.15;;;18.80;99.90;;;18.65;100.00;97660.41;4988981;28;20034;-36
2022/05/13 08:20:46;;;;;;;6.05;2.00;;;18.90;99.90;;;18.81;98.47;97671.81;4985149;28;20553;-36
2022/05/13 08:23:12;;;;;;;7.72;2.50;;;19.10;99.90;;;18.85;93.30;97651.94;4983488;28;20065;-36
2022/05/13 08:25:39;;;;;;;8.80;2.40;;;19.20;99.90;;;18.91;92.07;97660.53;4980591;28;20065;-37
2022/05/13 08:28:07;;;;;;;8.50;2.28;;;19.30;99.90;;;19.20;94.59;97661.22;4990651;28;20034;-36
2022/05/13 08:30:33;;;;;;;7.13;2.47;;;19.50;99.90;;;19.29;95.40;97665.09;4979986;28;20037;-36
2022/05/13 08:33:01;;;;;;;7.10;2.25;;;19.60;99.90;;;19.18;88.65;97680.03;4981939;28;20026;-37
2022/05/13 08:35:27;;;;;;;7.82;2.58;;;19.60;99.90;;;19.07;83.56;97677.25;4982706;28;20402;-36
2022/05/13 08:37:55;;;;;;;12.35;2.50;;;19.60;99.90;;;19.19;84.56;97678.25;4988366;28;20654;-37
2022/05/13 08:40:58;;;;;;;5.55;1.75;;;19.60;99.90;;;19.57;90.00;97670.25;4980136;28;20110;-36
2022/05/13 08:43:34;;;;;;;7.45;2.20;;;19.90;99.90;;;19.87;88.70;97661.09;4986284;28;20034;-36
2022/05/13 08:46:16;;;;;;;9.73;2.03;;;20.30;99.90;;;20.16;75.00;97667.03;4991220;28;20060;-37
2022/05/13 08:49:01;;;;;;;6.82;2.10;;;20.70;99.90;;;20.51;72.58;97669.00;4977490;28;20450;-37
2022/05/13 08:51:47;;;;;;;6.78;2.08;;;20.90;99.90;;;20.60;68.46;97670.13;4980014;28;20044;-37
2022/05/13 08:54:21;;;;;;;5.88;2.38;;;21.10;99.90;;;20.60;72.29;97662.09;5009204;28;20022;-37
2022/05/13 08:56:59;;;;;;;11.90;2.20;;;21.10;99.90;;;20.65;76.14;97669.84;4982061;28;20375;-37
2022/05/13 08:59:49;;;;;;;4.35;1.77;;;21.10;99.90;;;20.54;71.11;97673.28;4974468;28;20493;-37
2022/05/13 09:02:30;;;;;;;9.93;2.25;;;21.10;99.90;;;20.43;64.40;97660.66;4969653;28;20027;-37
2022/05/13 09:05:04;;;;;;;7.05;2.28;;;21.10;99.90;;;20.15;64.25;97665.34;4981626;28;20038;-37
2022/05/13 09:07:30;;;;;;;3.95;1.85;;;20.80;99.90;;;19.65;65.01;97657.22;4990863;28;20057;-37
2022/05/13 09:10:01;;;;;;;7.50;1.95;;;20.30;99.90;;;19.35;72.43;97656.69;4985080;28;20614;-37
2022/05/13 09:12:47;;;;;;;7.78;2.28;;;20.00;99.90;;;19.44;80.74;97666.75;5000329;28;21875;-37
2022/05/13 09:15:41;;;;;;;4.90;1.75;;;19.90;99.90;;;19.39;71.59;97659.00;4991115;28;20085;-37
2022/05/13 09:18:33;;;;;;;6.78;2.28;;;19.90;99.90;;;19.39;76.63;97639.44;4997737;28;20092;-37
2022/05/13 09:21:10;;;;;;;8.90;2.30;;;20.00;99.90;;;19.60;75.45;97661.19;4959945;28;20073;-37
2022/05/13 09:23:35;;;;;;;8.40;2.25;;;20.20;99.90;;;19.63;81.61;97666.31;4983660;28;20142;-37
2022/05/13 09:26:14;;;;;;;6.32;2.50;;;20.30;99.90;;;19.48;73.89;97656.69;4982825;28;20410;-37
2022/05/13 09:29:04;;;;;;;7.50;2.47;;;20.20;99.90;;;19.60;71.38;97679.91;4986637;28;20062;-37
2022/05/13 09:31:34;;;;;;;14.70;2.70;;;20.20;99.90;;;19.69;70.63;97673.91;4971445;28;20073;-37
2022/05/13 09:33:59;;;;;;;8.50;1.88;;;20.20;99.90;;;19.46;69.56;97675.50;4988019;28;20038;-37
2022/05/13 09:36:26;;;;;;;9.27;2.25;;;20.00;99.90;;;19.54;78.27;97675.84;4982084;28;20037;-37
2022/05/13 09:38:59;;;;;;;8.55;1.83;;;20.10;99.90;;;19.63;72.77;97674.31;4984781;28;20057;-37
2022/05/13 09:41:32;;;;;;;4.47;1.90;;;20.10;99.90;;;19.50;68.69;97670.81;4978648;28;20033;-37
2022/05/13 09:44:18;;;;;;;5.72;2.40;;;20.10;99.90;;;19.45;67.52;97671.97;4983797;28;20083;-36
2022/05/13 09:47:11;;;;;;;6.55;1.88;;;20.10;99.90;;;19.71;66.68;97660.44;4983137;28;20282;-36
2022/05/13 09:49:43;;;;;;;5.97;2.13;;;20.20;99.90;;;20.16;72.25;97677.75;4979022;28;20133;-37
2022/05/13 09:52:33;;;;;;;4.50;1.48;;;20.50;99.90;;;20.35;71.97;97671.06;4986617;28;20450;-36
2022/05/13 09:55:32;;;;;;;10.07;1.95;;;20.80;99.90;;;20.22;63.72;97671.09;4982676;28;20038;-36
2022/05/13 09:58:03;;;;;;;5.57;2.03;;;20.80;99.90;;;20.37;75.02;97674.53;4982828;28;20284;-37
2022/05/13 10:00:36;;;;;;;5.30;1.67;;;20.90;99.90;;;20.31;68.76;97681.16;4982912;28;20038;-36
2022/05/13 10:03:17;;;;;;;10.68;2.20;;;20.90;99.90;;;20.26;72.25;97667.25;4969069;28;20183;-37
2022/05/13 10:05:43;;;;;;;9.82;2.10;;;20.80;99.90;;;20.18;62.76;97670.47;4975430;28;20041;-37
2022/05/13 10:08:18;;;;;;;6.07;1.65;;;20.80;99.90;;;20.39;63.40;97668.06;4979031;28;20608;-37
2022/05/13 10:14:01;;;;;;;8.98;2.03;;;20.90;99.90;;;20.52;68.19;97667.19;4978446;28;20132;-37
2022/05/13 10:16:45;;;;;;;3.63;1.80;;;21.00;99.90;;;20.48;59.33;97663.03;4971125;28;20490;-37
2022/05/13 10:19:40;;;;;;;6.47;1.88;;;21.10;99.90;;;20.66;68.31;97664.38;4986451;28;20044;-37
2022/05/13 10:22:26;;;;;;;5.75;2.03;;;21.10;99.90;;;20.75;68.08;97669.03;4982113;28;20037;-37
2022/05/13 10:25:03;;;;;;;5.22;1.60;;;21.10;99.90;;;20.49;56.71;97670.91;4983145;28;20042;-37
2022/05/13 10:27:45;;;;;;;5.75;2.42;;;21.00;99.90;;;20.46;64.75;97664.94;4978165;28;20038;-37
2022/05/13 10:30:26;;;;;;;5.95;1.90;;;20.80;99.90;;;20.32;65.93;97676.66;4994342;28;20061;-37
2022/05/13 10:33:10;;;;;;;5.00;1.70;;;20.80;99.90;;;20.13;63.21;97674.44;4977661;28;20519;-37
2022/05/13 10:35:51;;;;;;;4.07;1.98;;;20.50;99.90;;;19.90;63.01;97670.72;4986210;28;20226;-36